Terminal Aerodrome Forecast
Issued by NWS

Home | Current Version | Previous Version | Text Only | Print | Product List | Glossary On
Versions: 1 2 3 4 5 6 7 8 9 10 11 12 13 14 15 16 17 18 19 20 21
000
FTUS46 KSEW 282300
TAFSEA
TAF
KSEA 282320Z 2900/3006 32010KT P6SM SKC
     FM290600 02005KT P6SM SKC
     FM291300 00000KT P6SM VCFG SCT002
     FM291700 VRB04KT P6SM SKC
     FM292200 31010KT P6SM SKC=

USA.gov is the U.S. government's official web portal to all federal, state and local government web resources and services.